x

Eel River - 17nm Wsw Of Eureka, Ca (46022) Wave Buoy

4:50pm - Mon 27th Feb 2017 All times are PST. -8 hours from GMT.

  • Sig Wave height 11.2ft
  • Swell Direction
  • Peak Period 11s
  • Average Period 9s
  • Wind
    9mph, 16mph gusts
  • Sea Temp 52°f
  • Air Temp 48°f
  • Sea Pressure 1016.1mb
  • Eel River - 17nm Wsw Of Eureka, Ca
  • Eel River - 17nm Wsw Of Eureka, Ca

More Historic Weather Station data

Upgrade to MSW Pro to gain access to the past 30 days of data for over 8000 Wavebouys and Weather Stations around the globe.

Join Pro

Comparision Forecast

View Surf forecast
   
Mon 02/27 4:50pm 11ft 11s 9s 9 16 mph 1016.1mb 52f 48f
3:50pm 11ft 11s 9s 11 16 mph 1015.8mb 52f 47f
2:50pm 11ft 12s 9s 16 20 mph 1015.7mb 52f 47f
1:50pm 10.5ft 12s 9s 2 7 mph 1015.7mb 52f 47f
12:50pm 11ft 12s 9s 4 7 mph 1015.8mb 52f 46f
11:50am 10.5ft 12s 9s  -  4 mph 1015.9mb 52f 47f
10:50am 11ft 11s 9s 4 9 mph 1015.8mb 52f 46f
9:50am 10ft 13s 9s 7 11 mph 1015.4mb 52f 46f
8:50am 10.5ft 11s 9s 7 9 mph 1014.9mb 51f 45f
7:50am 10ft 11s 9s 7 11 mph 1014.3mb 52f 45f
6:50am 10.5ft 10s 9s 9 13 mph 1013.9mb 51f 44f
5:50am 11ft 9s 8s 11 16 mph 1013.6mb 51f 43f
4:50am 11.5ft 15s 9s 2 9 mph 1013.3mb 51f 46f
3:50am 11ft 15s 8s 9 13 mph 1012.6mb 51f 47f
2:50am 9.5ft 16s 8s 4 11 mph 1012.8mb 51f 46f
1:50am 10ft 15s 8s 9 16 mph 1012.8mb 52f 45f
12:50am 10.5ft 15s 9s 4 9 mph 1012.6mb 52f 46f
Sun 02/26 11:50pm 10ft 16s 9s 4 9 mph 1012.3mb 52f 46f
10:50pm 9ft 16s 8s 13 25 mph 1012mb 52f 45f
9:50pm 9ft 16s 8s 9 13 mph 1012.1mb 52f 45f
8:50pm 9.5ft 16s 8s 11 18 mph 1011.8mb 52f 47f
7:50pm 10ft 16s 8s 13 16 mph 1011.6mb 52f 48f
6:50pm 9.5ft 17s 8s 11 13 mph 1011.8mb 52f 47f
5:50pm 8ft 16s 7s 11 16 mph 1011.8mb 52f 48f
4:50pm 8.5ft 16s 8s 13 16 mph 1011.9mb 52f 49f
3:50pm 8ft 16s 7s 11 16 mph 1012.2mb 52f 47f
2:50pm 8.5ft 16s 8s 16 22 mph 1012.2mb 52f 46f
1:50pm 9ft 17s 8s 22 29 mph 1012.5mb 52f 45f
12:50pm 9.5ft 16s 8s 22 25 mph 1013mb 52f 47f
11:50am 8ft 17s 8s 18 22 mph 1013.8mb 52f 48f
10:50am 8ft 17s 9s 13 18 mph 1014.3mb 52f 48f
9:50am 8.5ft 16s 9s 11 13 mph 1014.8mb 51f 46f
8:50am 7ft 16s 8s 16 18 mph 1015.2mb 51f 46f
7:50am 8ft 16s 9s 16 20 mph 1015.2mb 50f 46f
6:50am 8ft 17s 9s  -  2 mph 1015.4mb 50f 46f
5:50am 8ft 17s 9s 7 11 mph 1015.5mb 50f 48f
4:50am 8ft 13s 9s 9 11 mph 1015.9mb 49f 48f
3:50am 7.5ft 17s 9s 7 11 mph 1016.2mb 51f 46f
2:50am 7ft 14s 8s 4 9 mph 1017mb 52f 46f
1:50am 7ft 14s 8s 11 13 mph 1017.6mb 52f 49f
12:50am 6.5ft 14s 8s 11 13 mph 1018mb 52f 49f
Sat 02/25 11:50pm 7ft 14s 7s 13 16 mph 1018.3mb 52f 49f
10:50pm 6ft 14s 7s 11 16 mph 1018.7mb 52f 49f
9:50pm 6ft 14s 6s 13 16 mph 1019.1mb 52f 50f
8:50pm 6ft 15s 6s 16 18 mph 1019.3mb 52f 50f
7:50pm 5.5ft 14s 6s 18 22 mph 1019.4mb 53f 50f
6:50pm 5.5ft 14s 6s 20 25 mph 1019.4mb 53f 50f
5:50pm 6ft 14s 7s 20 22 mph 1019.3mb 53f 50f
4:50pm 6ft 12s 7s 18 20 mph 1019.4mb 53f 50f
3:50pm 6ft 14s 7s 18 20 mph 1019.7mb 53f 49f
2:50pm 6.5ft 13s 8s 16 20 mph 1019.9mb 53f 49f
1:50pm 6ft 14s 8s 16 18 mph 1020.2mb 53f 48f
12:50pm 6.5ft 14s 9s 9 11 mph 1020.8mb 53f 48f
11:50am 6ft 14s 8s 7 9 mph 1021mb 52f 47f
10:50am 6.5ft 14s 10s 7 9 mph 1020.6mb 52f 46f
9:50am 5.5ft 14s 9s 11 16 mph 1020.3mb 51f 46f
8:50am 5ft 14s 9s 11 13 mph 1020.8mb 51f 45f
7:50am 5ft 14s 8s 11 16 mph 1020.9mb 51f 43f
6:50am 5ft 15s 7s 16 18 mph 1020.6mb 51f 43f
5:50am 6ft 14s 8s 13 18 mph 1020.9mb 51f 43f
4:50am 6ft 15s 8s 7 11 mph 1020.9mb 52f 42f
3:50am 6ft 15s 8s 9 11 mph 1020.9mb 52f 41f
2:50am 6ft 15s 8s 13 18 mph 1020.5mb 52f 43f
1:50am 6ft 15s 7s 11 16 mph 1021.1mb 52f 42f
12:50am 7.5ft 15s 8s 7 11 mph 1021.3mb 52f 42f
Fri 02/24 11:50pm 7ft 15s 8s 13 16 mph 1021.1mb 52f 44f
10:50pm 6.5ft 15s 8s 9 11 mph 1021.8mb 52f 43f
9:50pm 6.5ft 15s 8s 7 11 mph 1021.8mb 52f 44f
8:50pm 7ft 15s 8s 13 18 mph 1021.7mb 52f 45f
7:50pm 7ft 15s 9s 13 20 mph 1021.8mb 52f 45f
6:50pm 6ft 15s 8s 13 18 mph 1021.9mb 52f 46f
5:50pm 6ft 15s 8s 11 16 mph 1022.2mb 52f 46f
4:50pm 6ft 15s 9s 9 18 mph 1022.7mb 53f 42f
3:50pm 5.5ft 16s 8s 13 18 mph 1022.7mb 52f 45f
2:50pm 6.5ft 16s 9s 13
mph
1023.2mb 53f 44f
1:50pm 7ft 16s 9s 13 16 mph 1023.7mb 53f 44f
12:50pm 7ft 16s 9s 9 11 mph 1024.2mb 53f 45f
11:50am 6ft 16s 8s 11 13 mph 1024.7mb 52f 44f
10:50am 7ft 16s 8s 9 13 mph 1024.8mb 52f 44f
9:50am 6.5ft 9s 8s 7 9 mph 1024.7mb 52f 45f
8:50am 6ft 16s 8s 9 11 mph 1024.7mb 50f 44f
7:50am 6ft 16s 8s 7 9 mph 1024.5mb 49f 43f
6:50am 6ft 9s 7s 4 7 mph 1024.2mb 49f 43f
5:50am 6.5ft 10s 8s 4 9 mph 1024.1mb 50f 44f
4:50am 6.5ft 16s 8s 2 4 mph 1024.3mb 50f 44f
3:50am 7ft 9s 7s 7 9 mph 1024.7mb 49f 43f
2:50am 6ft 10s 7s 7 9 mph 1024.9mb 51f 44f
1:50am 6ft 8s 7s 9 11 mph 1025.3mb 52f 46f